Time;durP1;ratioP1;P1;durP2;ratioP2;P2;SDS_P1;SDS_P2;PMS_P1;PMS_P2;Temp;Humidity;BMP_temperature;BMP_pressure;BME280_temperature;BME280_humidity;BME280_pressure;Samples;Min_cycle;Max_cycle;Signal;HPM_P1;HPM_P2
2022/11/06 00:00:25;;;;;;;12.00;4.55;;;10.60;99.90;;;;;;6189685;23;20252;-87
2022/11/06 00:02:51;;;;;;;14.93;4.95;;;10.60;99.90;;;;;;6190292;23;20004;-87
2022/11/06 00:08:08;;;;;;;11.48;4.97;;;10.60;99.90;;;;;;6218740;23;20012;-87
2022/11/06 00:10:36;;;;;;;8.60;4.00;;;10.60;99.90;;;;;;6195877;23;20011;-88
2022/11/06 00:13:02;;;;;;;9.77;4.38;;;10.60;99.90;;;;;;6248217;23;20001;-89
2022/11/06 00:15:29;;;;;;;9.65;4.15;;;10.60;99.90;;;;;;6221647;23;20024;-89
2022/11/06 00:17:54;;;;;;;11.68;4.18;;;10.60;99.90;;;;;;6221519;23;20075;-90
2022/11/06 00:20:26;;;;;;;11.23;4.85;;;10.60;99.90;;;;;;6195815;23;20347;-89
2022/11/06 00:22:51;;;;;;;14.07;4.22;;;10.60;99.90;;;;;;6220592;23;20008;-88
2022/11/06 00:25:22;;;;;;;11.88;4.35;;;10.60;99.90;;;;;;6195521;23;20496;-86
2022/11/06 00:27:50;;;;;;;10.80;4.60;;;10.50;99.90;;;;;;6221085;23;20072;-87
2022/11/06 00:30:19;;;;;;;12.50;4.60;;;10.60;99.90;;;;;;6248149;23;20370;-89
2022/11/06 00:32:45;;;;;;;11.98;3.80;;;10.60;99.90;;;;;;6221629;23;20373;-88
2022/11/06 00:35:11;;;;;;;11.38;4.40;;;10.50;99.90;;;;;;6246908;23;20317;-88
2022/11/06 00:37:40;;;;;;;9.85;4.13;;;10.60;99.90;;;;;;6220572;23;20028;-87
2022/11/06 00:40:06;;;;;;;7.82;3.63;;;10.60;99.90;;;;;;6194863;23;20016;-87
2022/11/06 00:42:32;;;;;;;9.45;3.58;;;10.60;99.90;;;;;;6219738;23;20087;-88
2022/11/06 00:44:58;;;;;;;13.07;4.30;;;10.60;99.90;;;;;;6219639;23;20035;-88
2022/11/06 00:47:26;;;;;;;10.65;4.43;;;10.60;99.90;;;;;;6220165;23;20024;-88
2022/11/06 00:49:54;;;;;;;13.25;4.20;;;10.60;99.90;;;;;;6246481;23;20004;-89
2022/11/06 00:52:22;;;;;;;11.48;4.25;;;10.50;99.90;;;;;;6220086;23;20000;-88
2022/11/06 00:54:53;;;;;;;9.57;4.30;;;10.60;99.90;;;;;;6220872;23;20008;-88
2022/11/06 00:57:18;;;;;;;14.18;4.40;;;10.60;99.90;;;;;;6195883;23;20004;-88
2022/11/06 00:59:54;;;;;;;;;;;;;;;;;;;;;
2022/11/06 01:02:30;;;;;;;10.52;3.72;;;10.50;99.90;;;;;;6248175;23;20486;-87
2022/11/06 01:05:03;;;;;;;7.07;3.33;;;10.50;99.90;;;;;;6221390;23;20361;-88
2022/11/06 01:07:31;;;;;;;7.90;3.53;;;10.40;99.90;;;;;;6197723;23;20000;-88
2022/11/06 01:09:57;;;;;;;7.22;3.35;;;10.40;99.90;;;;;;6221709;23;20012;-89
2022/11/06 01:12:25;;;;;;;9.02;3.70;;;10.40;99.90;;;;;;6195928;23;20091;-89
2022/11/06 01:14:53;;;;;;;8.13;3.40;;;10.40;99.90;;;;;;6191653;23;20009;-89
2022/11/06 01:17:19;;;;;;;10.20;3.65;;;10.40;99.90;;;;;;6218317;23;20052;-89
2022/11/06 01:19:47;;;;;;;8.27;3.38;;;10.40;99.90;;;;;;6192127;23;20035;-90
2022/11/06 01:22:17;;;;;;;16.95;4.47;;;10.30;99.90;;;;;;6218317;23;20007;-88
2022/11/06 01:24:46;;;;;;;8.75;3.90;;;10.30;99.90;;;;;;6191526;23;20001;-88
2022/11/06 01:27:11;;;;;;;9.85;3.40;;;10.40;99.90;;;;;;6192352;23;20004;-87
2022/11/06 01:29:39;;;;;;;11.00;3.67;;;10.40;99.90;;;;;;6191302;23;20449;-86
2022/11/06 01:32:07;;;;;;;15.10;3.92;;;10.40;99.90;;;;;;6191439;23;20001;-89
2022/11/06 01:34:33;;;;;;;7.90;3.05;;;10.30;99.90;;;;;;6191594;23;20005;-89
2022/11/06 01:36:59;;;;;;;10.13;3.45;;;10.30;99.90;;;;;;6191613;23;20343;-89
2022/11/06 01:39:25;;;;;;;8.18;3.30;;;10.30;99.90;;;;;;6191193;23;20008;-87
2022/11/06 01:41:54;;;;;;;11.40;3.75;;;10.40;99.90;;;;;;6191662;23;20024;-88
2022/11/06 01:44:41;;;;;;;11.00;3.60;;;10.30;99.90;;;;;;6217776;23;20000;-90
2022/11/06 01:47:27;;;;;;;11.13;3.20;;;10.30;99.90;;;;;;6191731;23;20005;-89
2022/11/06 01:49:59;;;;;;;9.88;3.38;;;10.30;99.90;;;;;;6191534;23;20419;-89
2022/11/06 01:55:20;;;;;;;10.02;3.22;;;10.30;99.90;;;;;;6201270;23;20032;-89
2022/11/06 01:57:47;;;;;;;7.80;3.00;;;10.30;99.90;;;;;;6191453;23;20001;-91
2022/11/06 02:00:16;;;;;;;9.68;2.70;;;10.30;99.90;;;;;;6167379;23;20032;-89
2022/11/06 02:02:42;;;;;;;10.75;2.80;;;10.30;99.90;;;;;;6191290;23;20015;-88
2022/11/06 02:05:10;;;;;;;14.02;2.88;;;10.20;99.90;;;;;;6191818;23;20092;-88
2022/11/06 02:07:39;;;;;;;9.45;3.25;;;10.20;99.90;;;;;;6167239;23;20012;-87
2022/11/06 02:10:07;;;;;;;5.70;2.40;;;10.30;99.90;;;;;;6191935;23;20007;-89
2022/11/06 02:12:44;;;;;;;9.68;3.05;;;10.30;99.90;;;;;;6221536;23;20012;-89
2022/11/06 02:15:26;;;;;;;7.68;2.53;;;10.30;99.90;;;;;;6223487;23;20311;-90
2022/11/06 02:18:19;;;;;;;8.63;3.25;;;10.20;99.90;;;;;;6227526;23;20008;-89
2022/11/06 02:20:58;;;;;;;9.40;2.78;;;10.30;99.90;;;;;;6223636;23;20092;-89
2022/11/06 02:23:59;;;;;;;10.15;2.83;;;10.30;99.90;;;;;;6221642;23;20011;-89
2022/11/06 02:26:34;;;;;;;;;;;10.30;99.90;;;;;;6188473;23;20035;-90
2022/11/06 02:29:16;;;;;;;8.43;3.17;;;10.30;99.90;;;;;;6222345;23;19900;-88
2022/11/06 02:31:44;;;;;;;13.35;2.90;;;10.30;99.90;;;;;;6222212;23;19996;-88
2022/11/06 02:34:20;;;;;;;10.57;2.97;;;10.20;99.90;;;;;;6224111;23;20000;-86
2022/11/06 02:36:51;;;;;;;9.98;2.90;;;10.30;99.90;;;;;;6225105;23;20067;-89
2022/11/06 02:39:23;;;;;;;13.80;3.03;;;10.30;99.90;;;;;;6224723;23;20011;-90
2022/11/06 02:41:55;;;;;;;11.00;3.25;;;10.30;99.90;;;;;;6250710;23;19996;-89
2022/11/06 02:44:25;;;;;;;7.18;2.65;;;10.30;99.90;;;;;;6224058;23;19996;-90
2022/11/06 02:47:07;;;;;;;10.85;3.20;;;10.40;99.90;;;;;;6223108;23;20000;-90
2022/11/06 02:49:50;;;;;;;9.27;2.80;;;10.30;99.90;;;;;;6222682;23;20000;-88
2022/11/06 02:52:31;;;;;;;12.07;2.97;;;10.30;99.90;;;;;;6221787;23;20000;-90
2022/11/06 02:55:29;;;;;;;9.88;3.22;;;10.30;99.90;;;;;;6221945;23;20027;-88
2022/11/06 02:58:05;;;;;;;7.95;2.50;;;10.40;99.90;;;;;;6222833;23;20020;-88
2022/11/06 03:00:32;;;;;;;8.98;2.75;;;10.30;99.90;;;;;;6249080;23;20031;-89
2022/11/06 03:03:13;;;;;;;7.85;2.80;;;10.30;99.90;;;;;;6248748;23;20010;-88
2022/11/06 03:06:00;;;;;;;11.20;2.67;;;10.40;99.90;;;;;;6222579;23;20398;-88
2022/11/06 03:08:37;;;;;;;9.40;2.80;;;10.40;99.90;;;;;;6221473;23;20000;-88
2022/11/06 03:11:34;;;;;;;9.38;2.40;;;10.40;99.90;;;;;;6221253;23;20024;-88
2022/11/06 03:14:12;;;;;;;9.68;3.30;;;10.40;99.90;;;;;;6247977;23;20445;-88
2022/11/06 03:17:05;;;;;;;12.77;2.78;;;10.40;99.90;;;;;;6221105;23;20004;-88
2022/11/06 03:19:46;;;;;;;14.35;3.10;;;10.40;99.90;;;;;;6220150;23;20284;-87
2022/11/06 03:22:39;;;;;;;11.10;2.20;;;10.40;99.90;;;;;;6219858;23;19999;-89
2022/11/06 03:25:14;;;;;;;11.25;3.22;;;10.40;99.90;;;;;;6219736;23;20429;-89
2022/11/06 03:28:05;;;;;;;8.40;2.28;;;10.40;99.90;;;;;;6220048;23;20035;-87
2022/11/06 03:30:43;;;;;;;9.07;2.75;;;10.40;99.90;;;;;;6220307;23;20004;-87
2022/11/06 03:33:37;;;;;;;13.73;3.10;;;10.40;99.90;;;;;;6222932;23;20011;-88
2022/11/06 03:36:21;;;;;;;9.30;3.13;;;10.40;99.90;;;;;;6224035;23;20438;-88
2022/11/06 03:38:54;;;;;;;9.65;2.60;;;10.40;99.90;;;;;;6252593;23;20003;-89
2022/11/06 03:41:47;;;;;;;8.93;2.40;;;10.50;99.90;;;;;;6248787;23;20441;-89
2022/11/06 03:44:18;;;;;;;11.23;2.80;;;10.50;99.90;;;;;;6221688;23;20027;-90
2022/11/06 03:46:48;;;;;;;;;;;10.50;99.90;;;;;;6222302;23;20028;-88
2022/11/06 03:49:23;;;;;;;5.22;2.00;;;10.50;99.90;;;;;;6221414;23;19903;-88
2022/11/06 03:51:59;;;;;;;11.73;3.08;;;10.50;99.90;;;;;;6221524;23;20004;-89
2022/11/06 03:54:30;;;;;;;10.10;2.47;;;10.40;99.90;;;;;;6221311;23;20032;-87
2022/11/06 03:56:59;;;;;;;;;;;10.50;99.90;;;;;;6222167;23;20050;-89
2022/11/06 03:59:31;;;;;;;10.30;2.72;;;10.50;99.90;;;;;;6220930;23;20310;-89
2022/11/06 04:01:59;;;;;;;8.27;2.20;;;10.50;99.90;;;;;;6221430;23;20000;-90
2022/11/06 04:04:43;;;;;;;8.65;2.28;;;10.50;99.90;;;;;;6221431;23;20000;-89
2022/11/06 04:07:12;;;;;;;12.57;3.05;;;10.50;99.90;;;;;;6224766;23;20011;-88
2022/11/06 04:13:56;;;;;;;11.93;2.58;;;10.50;99.90;;;;;;6249897;23;20094;-89
2022/11/06 04:15:43;;;;;;;7.03;2.40;;;10.50;99.90;;;;;;6249271;23;20012;-89
2022/11/06 04:18:15;;;;;;;10.30;2.53;;;10.60;99.90;;;;;;6248708;23;20533;-88
2022/11/06 04:27:32;;;;;;;7.78;3.17;;;10.60;99.90;;;;;;6249319;23;20062;-88
2022/11/06 04:30:10;;;;;;;10.52;2.75;;;10.60;99.90;;;;;;6147756;23;20004;-88
2022/11/06 04:32:45;;;;;;;8.57;2.40;;;10.60;99.90;;;;;;6221141;23;20083;-87
2022/11/06 04:35:25;;;;;;;8.32;2.28;;;10.60;99.90;;;;;;6221385;23;20046;-88
2022/11/06 04:38:11;;;;;;;6.13;2.10;;;10.60;99.90;;;;;;6222576;23;20011;-88
2022/11/06 04:41:16;;;;;;;11.55;3.00;;;10.70;99.90;;;;;;6222865;23;20034;-86
2022/11/06 04:43:53;;;;;;;11.70;4.30;;;10.70;99.90;;;;;;6222152;23;20083;-86
2022/11/06 04:46:44;;;;;;;9.18;2.33;;;10.70;99.90;;;;;;6223862;23;20007;-87
2022/11/06 04:49:14;;;;;;;10.30;2.40;;;10.70;99.90;;;;;;6250239;23;20008;-88
2022/11/06 04:51:45;;;;;;;7.37;2.40;;;10.70;99.90;;;;;;6249843;23;20044;-87
2022/11/06 04:54:10;;;;;;;;;;;10.70;99.90;;;;;;6223949;23;19997;-88
2022/11/06 04:56:37;;;;;;;7.85;2.28;;;10.70;99.90;;;;;;6223553;23;19910;-89
2022/11/06 04:59:06;;;;;;;7.35;2.20;;;10.70;99.90;;;;;;6223269;23;20004;-88
2022/11/06 05:01:33;;;;;;;11.35;2.80;;;10.70;99.90;;;;;;6223129;23;20031;-89
2022/11/06 05:03:59;;;;;;;10.02;2.42;;;10.70;99.90;;;;;;6224922;23;20004;-89
2022/11/06 05:06:24;;;;;;;8.98;2.58;;;10.70;99.90;;;;;;6223992;23;20014;-89
2022/11/06 05:08:50;;;;;;;5.85;2.13;;;10.70;99.90;;;;;;6225767;23;20039;-88
2022/11/06 05:11:16;;;;;;;7.53;2.13;;;10.70;99.90;;;;;;6224707;23;20019;-88
2022/11/06 05:13:41;;;;;;;7.60;2.05;;;10.70;99.90;;;;;;6200596;23;20019;-89
2022/11/06 05:16:07;;;;;;;7.45;2.22;;;10.70;99.90;;;;;;6226622;23;20019;-89
2022/11/06 05:18:33;;;;;;;8.02;2.40;;;10.70;99.90;;;;;;6201146;23;20004;-89
2022/11/06 05:23:50;;;;;;;7.05;2.00;;;10.70;99.90;;;;;;6253115;23;20500;-89
2022/11/06 05:26:16;;;;;;;7.43;2.20;;;10.70;99.90;;;;;;6226566;23;20004;-87
2022/11/06 05:28:42;;;;;;;11.35;2.88;;;10.70;99.90;;;;;;6227691;23;20374;-88
2022/11/06 05:31:12;;;;;;;10.70;2.30;;;10.70;99.90;;;;;;6234185;23;20063;-88
2022/11/06 05:33:38;;;;;;;9.90;2.40;;;10.70;99.90;;;;;;6233735;23;20004;-89
2022/11/06 05:36:05;;;;;;;6.75;1.90;;;10.80;99.90;;;;;;6224689;23;20487;-88
2022/11/06 05:38:32;;;;;;;9.15;2.50;;;10.70;99.90;;;;;;6223758;23;20031;-89
2022/11/06 05:40:57;;;;;;;5.70;2.22;;;10.70;99.90;;;;;;6227985;23;20008;-89
2022/11/06 05:43:24;;;;;;;7.03;2.20;;;10.70;99.90;;;;;;6237140;23;20027;-88
2022/11/06 05:45:50;;;;;;;11.45;3.20;;;10.70;99.90;;;;;;6235820;23;20067;-89
2022/11/06 05:48:16;;;;;;;8.13;2.10;;;10.70;99.90;;;;;;6227522;23;20000;-88
2022/11/06 05:50:42;;;;;;;12.23;2.67;;;10.70;99.90;;;;;;6224359;23;20011;-88
2022/11/06 05:53:08;;;;;;;8.38;2.50;;;10.70;99.90;;;;;;6226289;23;20007;-89
2022/11/06 05:55:33;;;;;;;8.85;2.20;;;10.70;99.90;;;;;;6228236;23;20004;-89
2022/11/06 05:58:01;;;;;;;8.60;2.38;;;10.70;99.90;;;;;;6228510;23;20004;-89
2022/11/06 06:00:29;;;;;;;11.10;2.35;;;10.70;99.90;;;;;;6225203;23;20004;-89
2022/11/06 06:02:58;;;;;;;10.23;2.30;;;10.70;99.90;;;;;;6224851;23;20015;-90
2022/11/06 06:05:26;;;;;;;9.68;2.40;;;10.70;99.90;;;;;;6230690;23;20004;-89
2022/11/06 06:07:59;;;;;;;9.10;2.30;;;10.70;99.90;;;;;;6262909;23;20000;-89
2022/11/06 06:10:25;;;;;;;9.15;2.42;;;10.70;99.90;;;;;;6237596;23;20066;-88
2022/11/06 06:12:51;;;;;;;8.90;2.42;;;10.70;99.90;;;;;;6210365;23;20032;-88
2022/11/06 06:15:17;;;;;;;14.15;2.53;;;10.70;99.90;;;;;;6238797;23;20039;-88
2022/11/06 06:17:44;;;;;;;12.73;2.53;;;10.70;99.90;;;;;;6239008;23;20000;-89
2022/11/06 06:20:10;;;;;;;8.20;2.15;;;10.70;99.90;;;;;;6239557;23;20055;-89
2022/11/06 06:22:39;;;;;;;8.95;2.45;;;10.70;99.90;;;;;;6268610;23;20019;-89
2022/11/06 06:25:06;;;;;;;8.30;2.30;;;10.70;99.90;;;;;;6210503;23;20004;-88
2022/11/06 06:27:36;;;;;;;10.45;2.45;;;10.70;99.90;;;;;;6223149;23;20023;-89
2022/11/06 06:30:01;;;;;;;8.70;2.17;;;10.70;99.90;;;;;;6223141;23;20035;-89
2022/11/06 06:32:27;;;;;;;7.65;2.38;;;10.70;99.90;;;;;;6222569;23;20000;-88
2022/11/06 06:34:53;;;;;;;7.95;2.30;;;10.70;99.90;;;;;;6221817;23;20035;-88
2022/11/06 06:37:19;;;;;;;7.30;2.17;;;10.70;99.90;;;;;;6223885;23;20008;-89
2022/11/06 06:39:44;;;;;;;9.63;2.15;;;10.70;99.90;;;;;;6222258;23;20016;-89
2022/11/06 06:42:15;;;;;;;10.73;1.98;;;10.70;99.90;;;;;;6221856;23;20000;-89
2022/11/06 06:44:42;;;;;;;10.50;2.08;;;10.70;99.90;;;;;;6221320;23;20001;-89
2022/11/06 06:47:08;;;;;;;7.82;2.33;;;10.70;99.90;;;;;;6222292;23;20011;-87
2022/11/06 06:49:36;;;;;;;8.90;2.00;;;10.70;99.90;;;;;;6221859;23;20004;-87
2022/11/06 06:52:04;;;;;;;6.30;2.33;;;10.70;99.90;;;;;;6221792;23;19996;-88
2022/11/06 06:54:36;;;;;;;8.70;1.90;;;10.70;99.90;;;;;;6248636;23;20003;-88
2022/11/06 06:57:02;;;;;;;9.13;2.58;;;10.60;99.90;;;;;;6222415;23;20009;-88
2022/11/06 06:59:30;;;;;;;8.15;2.47;;;10.60;99.90;;;;;;6223974;23;20022;-88
2022/11/06 07:01:56;;;;;;;8.20;1.98;;;10.70;99.90;;;;;;6200241;23;20023;-87
2022/11/06 07:04:23;;;;;;;10.02;2.03;;;10.70;99.90;;;;;;6225537;23;20004;-88
2022/11/06 07:06:48;;;;;;;8.82;2.03;;;10.70;99.90;;;;;;6222520;23;20011;-88
2022/11/06 07:09:14;;;;;;;8.68;1.95;;;10.70;99.90;;;;;;6248640;23;20007;-89
2022/11/06 07:11:49;;;;;;;7.90;2.08;;;10.70;99.90;;;;;;6247828;23;20019;-88
2022/11/06 07:14:15;;;;;;;8.07;1.80;;;10.70;99.90;;;;;;6220709;23;20008;-89
2022/11/06 07:16:43;;;;;;;6.57;2.10;;;10.70;99.90;;;;;;6221051;23;20094;-88
2022/11/06 07:19:09;;;;;;;7.13;2.15;;;10.70;99.90;;;;;;6220977;23;20445;-87
2022/11/06 07:21:35;;;;;;;11.18;2.20;;;10.70;99.90;;;;;;6196000;23;20004;-87
2022/11/06 07:24:06;;;;;;;8.55;2.10;;;10.70;99.90;;;;;;6221276;23;20001;-85
2022/11/06 07:26:46;;;;;;;8.77;2.20;;;10.80;99.90;;;;;;6197077;23;20000;-88
2022/11/06 07:32:06;;;;;;;5.22;1.85;;;10.70;99.90;;;;;;6225793;23;20019;-86
2022/11/06 07:34:37;;;;;;;8.00;2.33;;;10.80;99.90;;;;;;6196630;23;20011;-87
2022/11/06 07:37:07;;;;;;;9.20;2.45;;;10.80;99.90;;;;;;6221414;23;20488;-87
2022/11/06 07:39:33;;;;;;;6.65;2.03;;;10.80;99.90;;;;;;6220596;23;20083;-87
2022/11/06 07:42:13;;;;;;;12.23;2.38;;;10.90;99.90;;;;;;6223836;23;20004;-88
2022/11/06 07:44:38;;;;;;;7.88;2.65;;;10.90;99.90;;;;;;6220672;23;20010;-89
2022/11/06 07:47:07;;;;;;;6.50;2.20;;;10.90;99.90;;;;;;6220692;23;20005;-88
2022/11/06 07:49:37;;;;;;;5.38;1.80;;;10.90;99.90;;;;;;6247124;23;20000;-87
2022/11/06 07:52:06;;;;;;;7.35;2.22;;;10.90;99.90;;;;;;6221325;23;20000;-88
2022/11/06 07:54:34;;;;;;;10.07;2.10;;;11.00;99.90;;;;;;6197412;23;20134;-88
2022/11/06 07:56:59;;;;;;;7.75;2.10;;;11.00;99.90;;;;;;6222784;23;20004;-90
2022/11/06 07:59:25;;;;;;;8.27;2.22;;;11.00;99.90;;;;;;6223457;23;20087;-88
2022/11/06 08:01:59;;;;;;;8.43;2.00;;;11.00;99.90;;;;;;6223134;23;20000;-90
2022/11/06 08:04:39;;;;;;;;;;;;;;;;;;;;;
2022/11/06 08:07:06;;;;;;;8.63;1.75;;;11.10;99.90;;;;;;6244162;23;20075;-89
2022/11/06 08:09:32;;;;;;;8.13;1.80;;;11.10;99.90;;;;;;6222544;23;20020;-89
2022/11/06 08:12:00;;;;;;;7.32;2.17;;;11.10;99.90;;;;;;6209768;23;20024;-89
2022/11/06 08:14:33;;;;;;;6.63;1.67;;;11.10;99.90;;;;;;6194079;23;20016;-90
2022/11/06 08:17:11;;;;;;;7.53;1.83;;;11.20;99.90;;;;;;6193268;23;20374;-89
2022/11/06 08:19:39;;;;;;;6.50;1.98;;;11.20;99.90;;;;;;6169414;23;20019;-89
2022/11/06 08:22:10;;;;;;;8.20;2.00;;;11.30;99.90;;;;;;6192581;23;20084;-90
2022/11/06 08:24:36;;;;;;;;;;;11.20;99.90;;;;;;6193703;23;20071;-91
2022/11/06 08:27:07;;;;;;;5.97;1.80;;;11.30;99.90;;;;;;6192280;23;19903;-90
2022/11/06 08:29:33;;;;;;;7.95;1.58;;;11.30;99.90;;;;;;6192739;23;20497;-89
2022/11/06 08:31:59;;;;;;;6.25;1.63;;;11.30;99.90;;;;;;6192150;23;19997;-87
2022/11/06 08:34:27;;;;;;;7.30;1.77;;;11.40;99.90;;;;;;6218926;23;20001;-89
2022/11/06 08:36:57;;;;;;;6.50;1.77;;;11.40;99.90;;;;;;6192972;23;20024;-88
2022/11/06 08:39:23;;;;;;;5.50;2.53;;;11.40;99.90;;;;;;6169643;23;20032;-89
2022/11/06 08:41:51;;;;;;;5.72;1.52;;;11.50;99.90;;;;;;6196186;23;20000;-89
2022/11/06 08:44:25;;;;;;;7.53;2.17;;;11.50;99.90;;;;;;6196566;23;20058;-90
2022/11/06 08:46:52;;;;;;;9.27;1.80;;;11.50;99.90;;;;;;6196405;23;20001;-89
2022/11/06 08:49:18;;;;;;;7.25;1.80;;;11.50;99.90;;;;;;6223094;23;20011;-90
2022/11/06 08:51:53;;;;;;;4.47;1.42;;;11.50;99.90;;;;;;6203087;23;20004;-88
2022/11/06 08:54:19;;;;;;;6.40;1.63;;;11.60;99.90;;;;;;6216286;23;20003;-87
2022/11/06 08:56:48;;;;;;;7.32;1.83;;;11.60;99.90;;;;;;6218934;23;19997;-88
2022/11/06 08:59:23;;;;;;;8.23;2.50;;;11.60;99.90;;;;;;6219144;23;19992;-88
2022/11/06 09:01:51;;;;;;;6.05;1.80;;;11.60;99.90;;;;;;6244968;23;19993;-88
2022/11/06 09:04:22;;;;;;;5.00;1.50;;;11.60;99.90;;;;;;6218542;23;20064;-87
2022/11/06 09:06:51;;;;;;;12.18;2.17;;;11.60;99.90;;;;;;6218100;23;20036;-88
2022/11/06 09:09:19;;;;;;;8.10;1.75;;;11.60;99.90;;;;;;6193255;23;19996;-88
2022/11/06 09:11:45;;;;;;;4.78;1.77;;;11.60;99.90;;;;;;6228395;22;20027;-87
2022/11/06 09:14:11;;;;;;;6.80;1.63;;;11.60;99.90;;;;;;6247089;23;20020;-88
2022/11/06 09:16:36;;;;;;;5.97;1.50;;;11.60;99.90;;;;;;6208005;23;20440;-88
2022/11/06 09:19:02;;;;;;;5.75;1.90;;;11.60;99.90;;;;;;6225999;23;20010;-91
2022/11/06 09:21:28;;;;;;;4.90;1.30;;;11.70;99.90;;;;;;6227025;23;20000;-88
2022/11/06 09:23:57;;;;;;;11.20;2.00;;;11.70;99.90;;;;;;6226350;23;20000;-87
2022/11/06 09:26:34;;;;;;;11.00;2.00;;;11.80;99.90;;;;;;6229410;23;20050;-90
2022/11/06 09:29:03;;;;;;;7.95;2.10;;;11.80;99.90;;;;;;6227550;23;20093;-89
2022/11/06 09:31:31;;;;;;;7.47;1.70;;;11.80;99.90;;;;;;6206310;23;20004;-87
2022/11/06 09:34:02;;;;;;;10.70;2.03;;;11.80;99.90;;;;;;6221685;23;20007;-88
2022/11/06 09:36:28;;;;;;;4.25;1.35;;;11.90;99.90;;;;;;6201247;23;19996;-88
2022/11/06 09:38:56;;;;;;;6.03;1.65;;;11.90;99.90;;;;;;6223059;23;20001;-87
2022/11/06 09:41:44;;;;;;;9.23;2.10;;;12.00;99.90;;;;;;6225079;23;19996;-88
2022/11/06 09:44:44;;;;;;;6.05;1.70;;;12.00;99.90;;;;;;6222398;23;20000;-88
2022/11/06 09:47:17;;;;;;;5.40;1.50;;;12.00;99.90;;;;;;6222310;23;20000;-89
2022/11/06 09:49:51;;;;;;;7.00;1.90;;;12.00;99.90;;;;;;6222068;23;20000;-89
2022/11/06 09:52:42;;;;;;;9.20;1.50;;;12.00;99.90;;;;;;6222846;23;20000;-87
2022/11/06 09:55:26;;;;;;;5.70;1.70;;;12.00;99.90;;;;;;6223443;23;20227;-89
2022/11/06 09:58:03;;;;;;;8.25;2.50;;;12.10;99.90;;;;;;6224239;23;20071;-90
2022/11/06 10:00:29;;;;;;;6.47;1.40;;;12.10;99.90;;;;;;6224386;23;20008;-89
2022/11/06 10:03:23;;;;;;;4.88;1.60;;;12.20;99.90;;;;;;6198857;23;20019;-88
2022/11/06 10:05:54;;;;;;;7.30;2.53;;;12.20;99.90;;;;;;6250725;23;20048;-88
2022/11/06 10:08:25;;;;;;;10.63;1.83;;;12.20;99.90;;;;;;6224839;23;20004;-86
2022/11/06 10:11:03;;;;;;;3.35;1.48;;;12.30;99.90;;;;;;6222524;23;20004;-87
2022/11/06 10:13:53;;;;;;;8.15;2.13;;;12.30;99.90;;;;;;6249275;23;20019;-87
2022/11/06 10:16:59;;;;;;;6.60;1.38;;;12.30;99.90;;;;;;6222978;23;20422;-89
2022/11/06 10:19:59;;;;;;;6.90;1.50;;;12.40;99.90;;;;;;6247929;23;20015;-88
2022/11/06 10:22:52;;;;;;;8.57;1.70;;;12.40;99.90;;;;;;6199143;23;20338;-88
2022/11/06 10:25:45;;;;;;;7.53;1.77;;;12.40;99.90;;;;;;6223869;23;20001;-90
2022/11/06 10:28:48;;;;;;;6.72;2.00;;;12.40;99.90;;;;;;6251254;23;20026;-88
2022/11/06 10:31:38;;;;;;;5.45;1.65;;;12.50;99.90;;;;;;6221918;23;20001;-90
2022/11/06 10:34:13;;;;;;;7.43;1.90;;;12.50;99.90;;;;;;6225181;23;20003;-91
2022/11/06 10:37:03;;;;;;;13.15;2.00;;;12.50;99.90;;;;;;6225640;23;20314;-89
2022/11/06 10:39:38;;;;;;;6.97;1.83;;;12.60;99.90;;;;;;6252160;23;20004;-91
2022/11/06 10:42:35;;;;;;;5.95;1.50;;;12.60;99.90;;;;;;6224588;23;20019;-90
2022/11/06 10:45:17;;;;;;;10.77;2.20;;;12.60;99.90;;;;;;6227468;23;20446;-92
2022/11/06 10:47:52;;;;;;;8.13;2.03;;;12.60;99.90;;;;;;6224895;23;20004;-94
2022/11/06 10:50:52;;;;;;;6.95;1.70;;;12.60;99.90;;;;;;6225246;23;20004;-92
2022/11/06 10:53:48;;;;;;;6.28;1.70;;;12.60;99.90;;;;;;6221958;23;20000;-92
2022/11/06 10:56:46;;;;;;;4.68;1.42;;;12.70;99.90;;;;;;6193964;23;20031;-87
2022/11/06 10:59:15;;;;;;;5.15;1.52;;;12.70;99.90;;;;;;6220550;23;20434;-91
2022/11/06 11:01:53;;;;;;;5.15;1.75;;;12.70;99.90;;;;;;6221683;23;20005;-87
2022/11/06 11:04:21;;;;;;;8.70;1.60;;;12.70;99.90;;;;;;6247131;23;20457;-88
2022/11/06 11:06:50;;;;;;;8.02;2.10;;;12.80;99.90;;;;;;6220928;23;19996;-87
2022/11/06 11:09:40;;;;;;;5.07;1.33;;;12.90;99.90;;;;;;6219981;23;20004;-89
2022/11/06 11:12:32;;;;;;;5.75;1.95;;;13.00;99.90;;;;;;6220454;23;20000;-89
2022/11/06 11:15:25;;;;;;;8.98;2.47;;;12.90;99.90;;;;;;6221539;23;20028;-89
2022/11/06 11:18:16;;;;;;;7.20;1.85;;;12.90;99.90;;;;;;6220727;23;20011;-88
2022/11/06 11:24:09;;;;;;;8.00;1.92;;;12.90;99.90;;;;;;6240378;23;19927;-87
2022/11/06 11:27:17;;;;;;;7.75;1.95;;;12.90;99.90;;;;;;6227788;23;20004;-88
2022/11/06 11:30:19;;;;;;;8.50;1.70;;;12.80;99.90;;;;;;6252860;23;20000;-89
2022/11/06 11:33:09;;;;;;;10.40;2.05;;;12.80;99.90;;;;;;6215156;23;20030;-90
2022/11/06 11:36:01;;;;;;;;;;;;;;;;;;;;;
2022/11/06 11:38:48;;;;;;;;;;;;;;;;;;;;;
2022/11/06 11:41:26;;;;;;;8.48;1.50;;;12.90;99.90;;;;;;6247541;23;20092;-88
2022/11/06 11:44:43;;;;;;;;;;;;;;;;;;;;;
2022/11/06 11:47:30;;;;;;;8.50;1.48;;;12.90;99.90;;;;;;6246976;23;20083;-88
2022/11/06 11:50:29;;;;;;;7.30;1.35;;;13.00;99.90;;;;;;6220780;23;20004;-92
2022/11/06 11:53:26;;;;;;;5.40;1.50;;;13.00;99.90;;;;;;6220848;23;20075;-88
2022/11/06 11:55:55;;;;;;;4.93;1.42;;;12.90;99.90;;;;;;6186238;23;20005;-88
2022/11/06 11:58:29;;;;;;;4.93;1.50;;;13.00;99.90;;;;;;6247188;23;19996;-86
2022/11/06 12:01:10;;;;;;;5.50;1.38;;;13.00;99.90;;;;;;6220208;23;20027;-89
2022/11/06 12:03:45;;;;;;;5.25;1.33;;;13.00;99.90;;;;;;6220396;23;20430;-90
2022/11/06 12:06:19;;;;;;;8.52;2.30;;;13.10;99.90;;;;;;6221301;23;20480;-90
2022/11/06 12:09:13;;;;;;;6.95;1.40;;;13.10;99.90;;;;;;6222204;23;20007;-93
2022/11/06 12:15:18;;;;;;;3.85;1.00;;;13.10;99.90;;;;;;6185335;23;20016;-89
2022/11/06 12:24:50;;;;;;;10.07;1.60;;;13.20;99.90;;;;;;6236432;23;20004;-91
2022/11/06 12:27:26;;;;;;;5.63;1.70;;;13.10;99.90;;;;;;6220536;23;20077;-91
2022/11/06 12:30:05;;;;;;;9.55;1.52;;;13.10;99.90;;;;;;6221069;23;20079;-94
2022/11/06 12:32:55;;;;;;;3.78;1.38;;;13.10;99.90;;;;;;6223479;23;20327;-95
2022/11/06 12:36:01;;;;;;;3.65;1.20;;;13.10;99.90;;;;;;6248138;23;20441;-90
2022/11/06 12:39:10;;;;;;;;;;;;;;;;;;;;;
2022/11/06 12:41:54;;;;;;;3.72;1.27;;;13.10;99.90;;;;;;6249455;23;20052;-90
2022/11/06 12:44:24;;;;;;;6.07;1.52;;;13.10;99.90;;;;;;6221952;23;20000;-91
2022/11/06 12:47:32;;;;;;;5.82;1.40;;;13.10;99.90;;;;;;6226890;23;20054;-91
2022/11/06 12:50:40;;;;;;;7.75;1.58;;;13.10;99.90;;;;;;6223557;23;20014;-91
2022/11/06 12:53:25;;;;;;;5.80;1.30;;;13.10;99.90;;;;;;6222811;23;20008;-96
2022/11/06 12:56:28;;;;;;;;;;;;;;;;;;;;;
2022/11/06 12:59:23;;;;;;;5.85;1.40;;;13.10;99.90;;;;;;6225100;23;20067;-90
2022/11/06 13:02:20;;;;;;;5.72;1.48;;;13.10;99.90;;;;;;6250282;23;20004;-93
2022/11/06 13:05:00;;;;;;;7.38;1.90;;;13.10;99.90;;;;;;6224084;23;20008;-94
2022/11/06 13:07:36;;;;;;;5.67;1.60;;;13.10;99.90;;;;;;6224401;23;20054;-93
2022/11/06 13:10:41;;;;;;;6.40;2.00;;;13.10;99.90;;;;;;6221981;23;20245;-93
2022/11/06 13:13:29;;;;;;;6.88;1.73;;;13.20;99.90;;;;;;6215905;23;20020;-94
2022/11/06 13:16:13;;;;;;;;;;;;;;;;;;;;;
2022/11/06 13:19:23;;;;;;;5.28;1.73;;;13.20;99.90;;;;;;6219765;23;20044;-92
2022/11/06 13:22:27;;;;;;;4.72;1.42;;;13.20;99.90;;;;;;6215358;23;20016;-92
2022/11/06 13:25:01;;;;;;;6.95;1.67;;;13.30;99.90;;;;;;6222544;23;20076;-94
2022/11/06 13:27:59;;;;;;;;;;;;;;;;;;;;;
2022/11/06 13:30:38;;;;;;;6.60;1.55;;;13.30;99.90;;;;;;6224067;23;20032;-93
2022/11/06 13:33:34;;;;;;;6.93;1.40;;;13.30;99.90;;;;;;6219867;23;20001;-93
2022/11/06 13:36:10;;;;;;;7.70;1.33;;;13.30;99.90;;;;;;6218008;23;20013;-95
2022/11/06 13:39:05;;;;;;;5.60;1.50;;;13.30;99.90;;;;;;6225139;23;20063;-93
2022/11/06 13:41:34;;;;;;;4.88;1.40;;;13.30;99.90;;;;;;6182300;23;20004;-91
2022/11/06 13:44:14;;;;;;;;;;;;;;;;;;;;;
2022/11/06 13:46:48;;;;;;;7.22;1.65;;;13.30;99.90;;;;;;6226993;23;20031;-93
2022/11/06 13:49:46;;;;;;;5.35;1.23;;;13.30;99.90;;;;;;6224970;23;20423;-94
2022/11/06 13:52:28;;;;;;;3.60;1.13;;;13.30;99.90;;;;;;6203200;23;20004;-93
2022/11/06 13:55:30;;;;;;;6.72;1.45;;;13.30;99.90;;;;;;6218244;23;20003;-94
2022/11/06 14:01:37;;;;;;;5.10;1.42;;;13.20;98.50;;;;;;6211832;23;20017;-90
2022/11/06 14:04:34;;;;;;;6.78;1.20;;;13.20;99.30;;;;;;6217483;23;20422;-89
2022/11/06 14:07:08;;;;;;;7.80;1.33;;;13.20;98.90;;;;;;6216499;23;20347;-88
2022/11/06 14:09:35;;;;;;;8.85;2.25;;;13.10;98.10;;;;;;6215930;23;20001;-90
2022/11/06 14:12:06;;;;;;;6.03;1.23;;;13.10;98.90;;;;;;6191244;23;20411;-88
2022/11/06 14:14:33;;;;;;;6.27;1.20;;;13.10;98.40;;;;;;6197272;23;20015;-91
2022/11/06 14:17:14;;;;;;;7.93;1.48;;;13.10;98.90;;;;;;6167006;23;20240;-90
2022/11/06 14:19:49;;;;;;;;;;;13.10;98.80;;;;;;6216327;23;20013;-88